sensor_id;sensor_type;location;lat;lon;timestamp;P1;durP1;ratioP1;P2;durP2;ratioP2
8399;SDS011;4237;47.030;15.396;2022-09-03T00:01:53;4.87;;;3.30;;
8399;SDS011;4237;47.030;15.396;2022-09-03T00:04:31;3.17;;;2.77;;
8399;SDS011;4237;47.030;15.396;2022-09-03T00:07:24;6.50;;;2.63;;
8399;SDS011;4237;47.030;15.396;2022-09-03T00:09:49;12.23;;;3.87;;
8399;SDS011;4237;47.030;15.396;2022-09-03T00:12:27;6.43;;;3.00;;
8399;SDS011;4237;47.030;15.396;2022-09-03T00:15:08;4.00;;;2.70;;
8399;SDS011;4237;47.030;15.396;2022-09-03T00:17:43;4.03;;;3.30;;
8399;SDS011;4237;47.030;15.396;2022-09-03T00:20:21;6.03;;;3.50;;
8399;SDS011;4237;47.030;15.396;2022-09-03T00:22:52;8.17;;;3.90;;
8399;SDS011;4237;47.030;15.396;2022-09-03T00:25:24;3.70;;;3.13;;
8399;SDS011;4237;47.030;15.396;2022-09-03T00:28:00;4.33;;;3.33;;
8399;SDS011;4237;47.030;15.396;2022-09-03T00:30:31;6.17;;;3.37;;
8399;SDS011;4237;47.030;15.396;2022-09-03T00:33:10;4.20;;;3.13;;
8399;SDS011;4237;47.030;15.396;2022-09-03T00:35:43;3.13;;;2.83;;
8399;SDS011;4237;47.030;15.396;2022-09-03T00:38:16;5.93;;;3.10;;
8399;SDS011;4237;47.030;15.396;2022-09-03T00:41:05;3.20;;;2.90;;
8399;SDS011;4237;47.030;15.396;2022-09-03T00:46:29;4.47;;;2.83;;
8399;SDS011;4237;47.030;15.396;2022-09-03T00:51:55;6.73;;;3.33;;
8399;SDS011;4237;47.030;15.396;2022-09-03T01:00:08;3.17;;;2.83;;
8399;SDS011;4237;47.030;15.396;2022-09-03T01:05:37;7.00;;;3.43;;
8399;SDS011;4237;47.030;15.396;2022-09-03T01:11:25;6.80;;;3.23;;
8399;SDS011;4237;47.030;15.396;2022-09-03T01:28:34;5.57;;;3.40;;
8399;SDS011;4237;47.030;15.396;2022-09-03T01:34:08;4.93;;;3.40;;
8399;SDS011;4237;47.030;15.396;2022-09-03T01:36:36;3.83;;;3.30;;
8399;SDS011;4237;47.030;15.396;2022-09-03T01:39:21;5.50;;;3.77;;
8399;SDS011;4237;47.030;15.396;2022-09-03T01:42:21;4.40;;;3.03;;
8399;SDS011;4237;47.030;15.396;2022-09-03T01:47:54;4.67;;;3.40;;
8399;SDS011;4237;47.030;15.396;2022-09-03T01:50:32;6.53;;;3.40;;
8399;SDS011;4237;47.030;15.396;2022-09-03T01:53:06;4.93;;;3.37;;
8399;SDS011;4237;47.030;15.396;2022-09-03T01:55:47;7.27;;;3.60;;
8399;SDS011;4237;47.030;15.396;2022-09-03T01:58:22;3.70;;;3.30;;
8399;SDS011;4237;47.030;15.396;2022-09-03T02:00:55;7.60;;;3.90;;
8399;SDS011;4237;47.030;15.396;2022-09-03T02:03:31;5.63;;;3.73;;
8399;SDS011;4237;47.030;15.396;2022-09-03T02:06:07;4.10;;;3.20;;
8399;SDS011;4237;47.030;15.396;2022-09-03T02:08:37;3.67;;;3.30;;
8399;SDS011;4237;47.030;15.396;2022-09-03T02:11:08;6.17;;;3.33;;
8399;SDS011;4237;47.030;15.396;2022-09-03T02:13:38;4.20;;;3.30;;
8399;SDS011;4237;47.030;15.396;2022-09-03T02:16:10;3.73;;;3.33;;
8399;SDS011;4237;47.030;15.396;2022-09-03T02:18:47;4.93;;;3.43;;
8399;SDS011;4237;47.030;15.396;2022-09-03T02:21:24;3.67;;;3.13;;
8399;SDS011;4237;47.030;15.396;2022-09-03T02:23:56;4.20;;;3.60;;
8399;SDS011;4237;47.030;15.396;2022-09-03T02:26:24;4.13;;;3.50;;
8399;SDS011;4237;47.030;15.396;2022-09-03T02:28:53;4.83;;;3.50;;
8399;SDS011;4237;47.030;15.396;2022-09-03T02:31:24;4.13;;;3.70;;
8399;SDS011;4237;47.030;15.396;2022-09-03T02:33:55;3.33;;;3.03;;
8399;SDS011;4237;47.030;15.396;2022-09-03T02:36:25;7.33;;;3.17;;
8399;SDS011;4237;47.030;15.396;2022-09-03T02:38:59;4.73;;;3.43;;
8399;SDS011;4237;47.030;15.396;2022-09-03T02:41:28;4.60;;;3.40;;
8399;SDS011;4237;47.030;15.396;2022-09-03T02:44:08;4.40;;;3.43;;
8399;SDS011;4237;47.030;15.396;2022-09-03T02:46:45;4.67;;;3.70;;
8399;SDS011;4237;47.030;15.396;2022-09-03T02:49:15;4.47;;;3.73;;
8399;SDS011;4237;47.030;15.396;2022-09-03T02:51:44;7.23;;;3.97;;
8399;SDS011;4237;47.030;15.396;2022-09-03T02:54:12;7.30;;;3.30;;
8399;SDS011;4237;47.030;15.396;2022-09-03T02:56:41;5.27;;;3.70;;
8399;SDS011;4237;47.030;15.396;2022-09-03T02:59:09;5.77;;;3.50;;
8399;SDS011;4237;47.030;15.396;2022-09-03T03:01:38;5.57;;;3.57;;
8399;SDS011;4237;47.030;15.396;2022-09-03T03:04:07;3.70;;;3.40;;
8399;SDS011;4237;47.030;15.396;2022-09-03T03:06:35;5.33;;;3.63;;
8399;SDS011;4237;47.030;15.396;2022-09-03T03:09:04;6.67;;;3.70;;
8399;SDS011;4237;47.030;15.396;2022-09-03T03:11:34;5.67;;;3.70;;
8399;SDS011;4237;47.030;15.396;2022-09-03T03:14:03;6.07;;;3.70;;
8399;SDS011;4237;47.030;15.396;2022-09-03T03:16:31;4.10;;;3.70;;
8399;SDS011;4237;47.030;15.396;2022-09-03T03:19:00;4.73;;;3.77;;
8399;SDS011;4237;47.030;15.396;2022-09-03T03:21:29;5.90;;;3.73;;
8399;SDS011;4237;47.030;15.396;2022-09-03T03:23:57;3.83;;;3.40;;
8399;SDS011;4237;47.030;15.396;2022-09-03T03:26:28;4.07;;;3.40;;
8399;SDS011;4237;47.030;15.396;2022-09-03T03:28:57;4.03;;;3.37;;
8399;SDS011;4237;47.030;15.396;2022-09-03T03:31:29;4.00;;;3.60;;
8399;SDS011;4237;47.030;15.396;2022-09-03T03:33:59;5.67;;;3.50;;
8399;SDS011;4237;47.030;15.396;2022-09-03T03:36:30;6.73;;;3.80;;
8399;SDS011;4237;47.030;15.396;2022-09-03T03:39:00;4.07;;;3.67;;
8399;SDS011;4237;47.030;15.396;2022-09-03T03:41:31;6.10;;;3.80;;
8399;SDS011;4237;47.030;15.396;2022-09-03T03:44:02;4.23;;;3.83;;
8399;SDS011;4237;47.030;15.396;2022-09-03T03:46:37;6.47;;;3.93;;
8399;SDS011;4237;47.030;15.396;2022-09-03T03:49:07;5.23;;;4.00;;
8399;SDS011;4237;47.030;15.396;2022-09-03T03:51:37;6.77;;;4.10;;
8399;SDS011;4237;47.030;15.396;2022-09-03T03:54:06;7.07;;;4.20;;
8399;SDS011;4237;47.030;15.396;2022-09-03T03:56:35;4.77;;;3.77;;
8399;SDS011;4237;47.030;15.396;2022-09-03T03:59:04;5.27;;;4.00;;
8399;SDS011;4237;47.030;15.396;2022-09-03T04:01:32;5.17;;;4.10;;
8399;SDS011;4237;47.030;15.396;2022-09-03T04:04:01;4.20;;;3.80;;
8399;SDS011;4237;47.030;15.396;2022-09-03T04:06:31;6.20;;;4.20;;
8399;SDS011;4237;47.030;15.396;2022-09-03T04:09:01;6.47;;;4.00;;
8399;SDS011;4237;47.030;15.396;2022-09-03T04:11:28;5.73;;;4.17;;
8399;SDS011;4237;47.030;15.396;2022-09-03T04:13:57;5.67;;;4.17;;
8399;SDS011;4237;47.030;15.396;2022-09-03T04:16:26;5.60;;;4.13;;
8399;SDS011;4237;47.030;15.396;2022-09-03T04:18:55;4.60;;;4.20;;
8399;SDS011;4237;47.030;15.396;2022-09-03T04:21:26;5.20;;;4.30;;
8399;SDS011;4237;47.030;15.396;2022-09-03T04:23:56;5.00;;;4.37;;
8399;SDS011;4237;47.030;15.396;2022-09-03T04:26:26;5.33;;;4.17;;
8399;SDS011;4237;47.030;15.396;2022-09-03T04:28:59;7.80;;;4.10;;
8399;SDS011;4237;47.030;15.396;2022-09-03T04:31:31;7.10;;;4.33;;
8399;SDS011;4237;47.030;15.396;2022-09-03T04:34:01;6.40;;;4.23;;
8399;SDS011;4237;47.030;15.396;2022-09-03T04:36:31;6.30;;;4.87;;
8399;SDS011;4237;47.030;15.396;2022-09-03T04:39:01;7.17;;;4.63;;
8399;SDS011;4237;47.030;15.396;2022-09-03T04:41:30;7.83;;;4.40;;
8399;SDS011;4237;47.030;15.396;2022-09-03T04:43:58;5.77;;;5.13;;
8399;SDS011;4237;47.030;15.396;2022-09-03T04:46:27;13.80;;;5.70;;
8399;SDS011;4237;47.030;15.396;2022-09-03T04:48:59;6.70;;;5.40;;
8399;SDS011;4237;47.030;15.396;2022-09-03T04:51:28;6.73;;;5.40;;
8399;SDS011;4237;47.030;15.396;2022-09-03T04:53:58;7.00;;;5.00;;
8399;SDS011;4237;47.030;15.396;2022-09-03T04:56:28;9.60;;;6.00;;
8399;SDS011;4237;47.030;15.396;2022-09-03T04:58:58;7.23;;;6.17;;
8399;SDS011;4237;47.030;15.396;2022-09-03T05:01:28;8.93;;;5.53;;
8399;SDS011;4237;47.030;15.396;2022-09-03T05:03:57;6.07;;;5.43;;
8399;SDS011;4237;47.030;15.396;2022-09-03T05:06:26;6.57;;;4.60;;
8399;SDS011;4237;47.030;15.396;2022-09-03T05:08:55;5.30;;;4.80;;
8399;SDS011;4237;47.030;15.396;2022-09-03T05:11:24;5.97;;;4.60;;
8399;SDS011;4237;47.030;15.396;2022-09-03T05:13:54;4.27;;;3.87;;
8399;SDS011;4237;47.030;15.396;2022-09-03T05:16:23;4.20;;;3.80;;
8399;SDS011;4237;47.030;15.396;2022-09-03T05:18:52;5.00;;;3.70;;
8399;SDS011;4237;47.030;15.396;2022-09-03T05:21:21;6.80;;;3.90;;
8399;SDS011;4237;47.030;15.396;2022-09-03T05:23:50;5.57;;;3.60;;
8399;SDS011;4237;47.030;15.396;2022-09-03T05:26:20;5.07;;;3.53;;
8399;SDS011;4237;47.030;15.396;2022-09-03T05:28:52;4.47;;;3.50;;
8399;SDS011;4237;47.030;15.396;2022-09-03T05:31:19;7.60;;;3.37;;
8399;SDS011;4237;47.030;15.396;2022-09-03T05:33:49;4.70;;;3.70;;
8399;SDS011;4237;47.030;15.396;2022-09-03T05:36:18;4.70;;;3.80;;
8399;SDS011;4237;47.030;15.396;2022-09-03T05:38:48;4.83;;;4.00;;
8399;SDS011;4237;47.030;15.396;2022-09-03T05:41:17;5.50;;;3.70;;
8399;SDS011;4237;47.030;15.396;2022-09-03T05:43:46;5.90;;;3.43;;
8399;SDS011;4237;47.030;15.396;2022-09-03T05:46:16;5.47;;;3.80;;
8399;SDS011;4237;47.030;15.396;2022-09-03T05:48:44;3.73;;;3.27;;
8399;SDS011;4237;47.030;15.396;2022-09-03T05:51:14;5.03;;;3.30;;
8399;SDS011;4237;47.030;15.396;2022-09-03T05:53:43;5.53;;;3.03;;
8399;SDS011;4237;47.030;15.396;2022-09-03T05:56:13;6.43;;;2.80;;
8399;SDS011;4237;47.030;15.396;2022-09-03T05:58:44;3.93;;;2.73;;
8399;SDS011;4237;47.030;15.396;2022-09-03T06:01:13;4.27;;;2.50;;
8399;SDS011;4237;47.030;15.396;2022-09-03T06:03:42;3.60;;;2.50;;
8399;SDS011;4237;47.030;15.396;2022-09-03T06:06:10;5.00;;;2.73;;
8399;SDS011;4237;47.030;15.396;2022-09-03T06:08:40;3.10;;;2.20;;
8399;SDS011;4237;47.030;15.396;2022-09-03T06:11:10;5.80;;;2.50;;
8399;SDS011;4237;47.030;15.396;2022-09-03T06:13:39;2.83;;;2.40;;
8399;SDS011;4237;47.030;15.396;2022-09-03T06:16:07;4.63;;;2.70;;
8399;SDS011;4237;47.030;15.396;2022-09-03T06:18:35;3.43;;;2.43;;
8399;SDS011;4237;47.030;15.396;2022-09-03T06:21:05;5.03;;;2.27;;
8399;SDS011;4237;47.030;15.396;2022-09-03T06:23:34;3.00;;;2.10;;
8399;SDS011;4237;47.030;15.396;2022-09-03T06:28:32;3.87;;;2.20;;
8399;SDS011;4237;47.030;15.396;2022-09-03T06:31:05;3.57;;;2.20;;
8399;SDS011;4237;47.030;15.396;2022-09-03T06:33:35;6.43;;;2.50;;
8399;SDS011;4237;47.030;15.396;2022-09-03T06:36:04;2.80;;;2.23;;
8399;SDS011;4237;47.030;15.396;2022-09-03T06:38:33;2.60;;;2.07;;
8399;SDS011;4237;47.030;15.396;2022-09-03T06:41:11;4.57;;;2.50;;
8399;SDS011;4237;47.030;15.396;2022-09-03T06:43:38;4.23;;;2.63;;
8399;SDS011;4237;47.030;15.396;2022-09-03T06:46:11;2.40;;;2.20;;
8399;SDS011;4237;47.030;15.396;2022-09-03T06:48:37;5.50;;;2.25;;
8399;SDS011;4237;47.030;15.396;2022-09-03T06:51:06;4.83;;;2.70;;
8399;SDS011;4237;47.030;15.396;2022-09-03T06:53:37;4.10;;;2.37;;
8399;SDS011;4237;47.030;15.396;2022-09-03T06:56:06;2.83;;;2.10;;
8399;SDS011;4237;47.030;15.396;2022-09-03T06:58:41;2.75;;;2.10;;
8399;SDS011;4237;47.030;15.396;2022-09-03T07:01:06;3.95;;;2.40;;
8399;SDS011;4237;47.030;15.396;2022-09-03T07:03:35;4.35;;;2.30;;
8399;SDS011;4237;47.030;15.396;2022-09-03T07:06:05;2.65;;;2.30;;
8399;SDS011;4237;47.030;15.396;2022-09-03T07:08:33;3.08;;;2.37;;
8399;SDS011;4237;47.030;15.396;2022-09-03T07:11:02;2.72;;;2.30;;
8399;SDS011;4237;47.030;15.396;2022-09-03T07:13:35;4.40;;;2.60;;
8399;SDS011;4237;47.030;15.396;2022-09-03T07:16:09;4.60;;;2.42;;
8399;SDS011;4237;47.030;15.396;2022-09-03T07:18:41;2.45;;;2.25;;
8399;SDS011;4237;47.030;15.396;2022-09-03T07:21:17;3.27;;;2.50;;
8399;SDS011;4237;47.030;15.396;2022-09-03T07:23:43;3.17;;;2.20;;
8399;SDS011;4237;47.030;15.396;2022-09-03T07:26:13;3.62;;;2.40;;
8399;SDS011;4237;47.030;15.396;2022-09-03T07:28:45;6.42;;;2.62;;
8399;SDS011;4237;47.030;15.396;2022-09-03T07:31:16;5.03;;;2.10;;
8399;SDS011;4237;47.030;15.396;2022-09-03T07:36:14;4.40;;;2.35;;
8399;SDS011;4237;47.030;15.396;2022-09-03T07:38:43;4.60;;;2.62;;
8399;SDS011;4237;47.030;15.396;2022-09-03T07:41:12;6.37;;;2.17;;
8399;SDS011;4237;47.030;15.396;2022-09-03T07:43:44;4.47;;;2.77;;
8399;SDS011;4237;47.030;15.396;2022-09-03T07:46:17;3.52;;;2.05;;
8399;SDS011;4237;47.030;15.396;2022-09-03T07:48:47;6.60;;;2.40;;
8399;SDS011;4237;47.030;15.396;2022-09-03T07:51:17;4.25;;;2.58;;
8399;SDS011;4237;47.030;15.396;2022-09-03T07:53:46;3.45;;;2.25;;
8399;SDS011;4237;47.030;15.396;2022-09-03T07:56:14;4.42;;;2.52;;
8399;SDS011;4237;47.030;15.396;2022-09-03T07:58:43;4.12;;;2.52;;
8399;SDS011;4237;47.030;15.396;2022-09-03T08:01:12;3.58;;;2.50;;
8399;SDS011;4237;47.030;15.396;2022-09-03T08:03:46;4.22;;;2.47;;
8399;SDS011;4237;47.030;15.396;2022-09-03T08:06:10;4.67;;;2.25;;
8399;SDS011;4237;47.030;15.396;2022-09-03T08:08:39;4.12;;;2.27;;
8399;SDS011;4237;47.030;15.396;2022-09-03T08:11:09;5.33;;;2.37;;
8399;SDS011;4237;47.030;15.396;2022-09-03T08:13:41;3.80;;;2.77;;
8399;SDS011;4237;47.030;15.396;2022-09-03T08:16:11;3.77;;;2.45;;
8399;SDS011;4237;47.030;15.396;2022-09-03T08:18:40;6.90;;;2.70;;
8399;SDS011;4237;47.030;15.396;2022-09-03T08:21:15;5.10;;;2.40;;
8399;SDS011;4237;47.030;15.396;2022-09-03T08:23:45;4.12;;;2.25;;
8399;SDS011;4237;47.030;15.396;2022-09-03T08:26:14;3.08;;;2.30;;
8399;SDS011;4237;47.030;15.396;2022-09-03T08:28:43;2.87;;;2.47;;
8399;SDS011;4237;47.030;15.396;2022-09-03T08:31:15;3.65;;;2.60;;
8399;SDS011;4237;47.030;15.396;2022-09-03T08:33:45;7.55;;;2.80;;
8399;SDS011;4237;47.030;15.396;2022-09-03T08:36:15;4.67;;;3.00;;
8399;SDS011;4237;47.030;15.396;2022-09-03T08:38:44;4.60;;;3.00;;
8399;SDS011;4237;47.030;15.396;2022-09-03T08:41:14;3.55;;;2.90;;
8399;SDS011;4237;47.030;15.396;2022-09-03T08:46:12;3.35;;;2.72;;
8399;SDS011;4237;47.030;15.396;2022-09-03T08:48:40;4.87;;;2.80;;
8399;SDS011;4237;47.030;15.396;2022-09-03T08:51:09;4.03;;;2.90;;
8399;SDS011;4237;47.030;15.396;2022-09-03T08:56:17;5.47;;;2.67;;
8399;SDS011;4237;47.030;15.396;2022-09-03T08:58:40;6.03;;;2.70;;
8399;SDS011;4237;47.030;15.396;2022-09-03T09:06:29;4.95;;;2.83;;
8399;SDS011;4237;47.030;15.396;2022-09-03T09:14:04;4.45;;;2.45;;
8399;SDS011;4237;47.030;15.396;2022-09-03T09:19:15;4.50;;;2.75;;
8399;SDS011;4237;47.030;15.396;2022-09-03T09:21:42;4.47;;;2.40;;
8399;SDS011;4237;47.030;15.396;2022-09-03T09:24:16;2.92;;;2.27;;
8399;SDS011;4237;47.030;15.396;2022-09-03T09:26:42;6.08;;;2.70;;
8399;SDS011;4237;47.030;15.396;2022-09-03T09:29:11;5.20;;;2.77;;
8399;SDS011;4237;47.030;15.396;2022-09-03T09:31:41;3.87;;;2.35;;
8399;SDS011;4237;47.030;15.396;2022-09-03T09:34:12;2.92;;;2.60;;
8399;SDS011;4237;47.030;15.396;2022-09-03T09:36:42;3.20;;;2.22;;
8399;SDS011;4237;47.030;15.396;2022-09-03T09:39:11;3.27;;;2.47;;
8399;SDS011;4237;47.030;15.396;2022-09-03T09:41:41;4.33;;;2.22;;
8399;SDS011;4237;47.030;15.396;2022-09-03T09:44:18;3.98;;;2.33;;
8399;SDS011;4237;47.030;15.396;2022-09-03T09:46:46;2.50;;;2.00;;
8399;SDS011;4237;47.030;15.396;2022-09-03T09:49:34;3.33;;;2.40;;
8399;SDS011;4237;47.030;15.396;2022-09-03T09:52:16;3.15;;;2.30;;
8399;SDS011;4237;47.030;15.396;2022-09-03T09:54:30;3.80;;;2.10;;
8399;SDS011;4237;47.030;15.396;2022-09-03T09:57:03;2.92;;;2.10;;
8399;SDS011;4237;47.030;15.396;2022-09-03T09:59:32;5.70;;;2.80;;
8399;SDS011;4237;47.030;15.396;2022-09-03T10:02:22;4.67;;;2.52;;
8399;SDS011;4237;47.030;15.396;2022-09-03T10:04:33;3.35;;;2.22;;
8399;SDS011;4237;47.030;15.396;2022-09-03T10:07:06;5.40;;;2.45;;
8399;SDS011;4237;47.030;15.396;2022-09-03T10:09:33;4.42;;;2.72;;
8399;SDS011;4237;47.030;15.396;2022-09-03T10:12:03;3.25;;;2.40;;
8399;SDS011;4237;47.030;15.396;2022-09-03T10:14:33;6.72;;;2.25;;
8399;SDS011;4237;47.030;15.396;2022-09-03T10:17:13;5.58;;;2.70;;
8399;SDS011;4237;47.030;15.396;2022-09-03T10:19:39;6.15;;;2.27;;
8399;SDS011;4237;47.030;15.396;2022-09-03T10:22:06;3.25;;;2.30;;
8399;SDS011;4237;47.030;15.396;2022-09-03T10:27:09;5.83;;;2.08;;
8399;SDS011;4237;47.030;15.396;2022-09-03T10:29:39;2.83;;;2.27;;
8399;SDS011;4237;47.030;15.396;2022-09-03T10:34:53;3.60;;;2.10;;
8399;SDS011;4237;47.030;15.396;2022-09-03T10:37:33;4.08;;;2.33;;
8399;SDS011;4237;47.030;15.396;2022-09-03T10:48:02;3.80;;;2.10;;
8399;SDS011;4237;47.030;15.396;2022-09-03T10:51:05;2.17;;;1.90;;
8399;SDS011;4237;47.030;15.396;2022-09-03T10:55:30;2.95;;;1.75;;
8399;SDS011;4237;47.030;15.396;2022-09-03T11:00:27;2.02;;;1.70;;
8399;SDS011;4237;47.030;15.396;2022-09-03T11:08:06;6.70;;;2.20;;
8399;SDS011;4237;47.030;15.396;2022-09-03T11:10:34;3.50;;;1.72;;
8399;SDS011;4237;47.030;15.396;2022-09-03T11:13:05;6.00;;;2.50;;
8399;SDS011;4237;47.030;15.396;2022-09-03T11:15:36;4.67;;;2.10;;
8399;SDS011;4237;47.030;15.396;2022-09-03T11:18:21;3.75;;;2.05;;
8399;SDS011;4237;47.030;15.396;2022-09-03T11:20:50;2.45;;;2.15;;
8399;SDS011;4237;47.030;15.396;2022-09-03T11:23:20;2.45;;;2.25;;
8399;SDS011;4237;47.030;15.396;2022-09-03T11:25:50;2.60;;;2.35;;
8399;SDS011;4237;47.030;15.396;2022-09-03T11:33:59;4.10;;;1.95;;
8399;SDS011;4237;47.030;15.396;2022-09-03T11:36:29;2.52;;;2.08;;
8399;SDS011;4237;47.030;15.396;2022-09-03T11:38:57;2.95;;;2.20;;
8399;SDS011;4237;47.030;15.396;2022-09-03T11:41:27;3.95;;;1.90;;
8399;SDS011;4237;47.030;15.396;2022-09-03T11:43:56;4.05;;;1.90;;
8399;SDS011;4237;47.030;15.396;2022-09-03T11:48:55;2.55;;;1.72;;
8399;SDS011;4237;47.030;15.396;2022-09-03T11:53:57;2.27;;;1.77;;
8399;SDS011;4237;47.030;15.396;2022-09-03T11:56:27;3.92;;;2.15;;
8399;SDS011;4237;47.030;15.396;2022-09-03T12:01:56;3.98;;;2.12;;
8399;SDS011;4237;47.030;15.396;2022-09-03T12:04:13;2.40;;;1.92;;
8399;SDS011;4237;47.030;15.396;2022-09-03T12:06:54;2.50;;;2.00;;
8399;SDS011;4237;47.030;15.396;2022-09-03T12:14:39;4.15;;;2.05;;
8399;SDS011;4237;47.030;15.396;2022-09-03T12:22:20;2.10;;;1.90;;
8399;SDS011;4237;47.030;15.396;2022-09-03T12:24:49;2.45;;;1.95;;
8399;SDS011;4237;47.030;15.396;2022-09-03T12:27:22;2.30;;;1.90;;
8399;SDS011;4237;47.030;15.396;2022-09-03T12:30:00;2.65;;;1.90;;
8399;SDS011;4237;47.030;15.396;2022-09-03T12:32:32;3.10;;;1.92;;
8399;SDS011;4237;47.030;15.396;2022-09-03T12:35:15;3.33;;;2.25;;
8399;SDS011;4237;47.030;15.396;2022-09-03T12:37:40;1.90;;;1.80;;
8399;SDS011;4237;47.030;15.396;2022-09-03T12:40:17;2.08;;;1.90;;
8399;SDS011;4237;47.030;15.396;2022-09-03T12:42:47;3.72;;;1.70;;
8399;SDS011;4237;47.030;15.396;2022-09-03T12:45:22;2.85;;;1.75;;
8399;SDS011;4237;47.030;15.396;2022-09-03T12:47:46;2.30;;;1.85;;
8399;SDS011;4237;47.030;15.396;2022-09-03T12:50:15;1.85;;;1.72;;
8399;SDS011;4237;47.030;15.396;2022-09-03T12:53:03;4.37;;;2.05;;
8399;SDS011;4237;47.030;15.396;2022-09-03T13:00:32;2.60;;;2.10;;
8399;SDS011;4237;47.030;15.396;2022-09-03T13:03:18;2.15;;;1.82;;
8399;SDS011;4237;47.030;15.396;2022-09-03T13:05:47;1.80;;;1.70;;
8399;SDS011;4237;47.030;15.396;2022-09-03T13:08:22;4.12;;;2.00;;
8399;SDS011;4237;47.030;15.396;2022-09-03T13:10:48;2.08;;;1.87;;
8399;SDS011;4237;47.030;15.396;2022-09-03T13:13:26;4.80;;;1.90;;
8399;SDS011;4237;47.030;15.396;2022-09-03T13:18:39;2.33;;;1.95;;
8399;SDS011;4237;47.030;15.396;2022-09-03T13:21:09;3.98;;;1.90;;
8399;SDS011;4237;47.030;15.396;2022-09-03T13:23:53;2.50;;;2.30;;
8399;SDS011;4237;47.030;15.396;2022-09-03T13:29:25;2.58;;;2.20;;
8399;SDS011;4237;47.030;15.396;2022-09-03T13:31:57;2.65;;;1.90;;
8399;SDS011;4237;47.030;15.396;2022-09-03T13:34:25;6.15;;;1.87;;
8399;SDS011;4237;47.030;15.396;2022-09-03T13:37:05;2.87;;;2.17;;
8399;SDS011;4237;47.030;15.396;2022-09-03T13:39:27;5.67;;;1.98;;
8399;SDS011;4237;47.030;15.396;2022-09-03T13:42:44;3.77;;;2.33;;
8399;SDS011;4237;47.030;15.396;2022-09-03T13:46:59;4.87;;;2.10;;
8399;SDS011;4237;47.030;15.396;2022-09-03T13:52:38;4.10;;;2.17;;
8399;SDS011;4237;47.030;15.396;2022-09-03T13:55:13;2.17;;;1.98;;
8399;SDS011;4237;47.030;15.396;2022-09-03T14:00:28;3.83;;;1.80;;
8399;SDS011;4237;47.030;15.396;2022-09-03T14:03:06;3.12;;;1.70;;
8399;SDS011;4237;47.030;15.396;2022-09-03T14:08:19;2.47;;;1.70;;
8399;SDS011;4237;47.030;15.396;2022-09-03T14:11:11;2.12;;;1.72;;
8399;SDS011;4237;47.030;15.396;2022-09-03T14:16:37;2.12;;;1.80;;
8399;SDS011;4237;47.030;15.396;2022-09-03T14:19:08;4.87;;;2.07;;
8399;SDS011;4237;47.030;15.396;2022-09-03T14:21:46;2.47;;;1.80;;
8399;SDS011;4237;47.030;15.396;2022-09-03T14:24:20;4.53;;;1.87;;
8399;SDS011;4237;47.030;15.396;2022-09-03T14:26:49;2.30;;;1.77;;
8399;SDS011;4237;47.030;15.396;2022-09-03T14:29:20;1.97;;;1.70;;
8399;SDS011;4237;47.030;15.396;2022-09-03T14:31:57;1.97;;;1.87;;
8399;SDS011;4237;47.030;15.396;2022-09-03T14:40:29;1.80;;;1.70;;
8399;SDS011;4237;47.030;15.396;2022-09-03T14:43:07;2.60;;;2.20;;
8399;SDS011;4237;47.030;15.396;2022-09-03T14:51:21;2.05;;;1.67;;
8399;SDS011;4237;47.030;15.396;2022-09-03T14:53:49;2.50;;;1.72;;
8399;SDS011;4237;47.030;15.396;2022-09-03T14:56:20;3.12;;;1.82;;
8399;SDS011;4237;47.030;15.396;2022-09-03T15:01:31;5.20;;;1.95;;
8399;SDS011;4237;47.030;15.396;2022-09-03T15:04:03;1.90;;;1.80;;
8399;SDS011;4237;47.030;15.396;2022-09-03T15:06:46;3.67;;;1.80;;
8399;SDS011;4237;47.030;15.396;2022-09-03T15:09:13;5.03;;;2.10;;
8399;SDS011;4237;47.030;15.396;2022-09-03T15:11:47;3.20;;;1.90;;
8399;SDS011;4237;47.030;15.396;2022-09-03T15:19:39;4.13;;;1.83;;
8399;SDS011;4237;47.030;15.396;2022-09-03T15:25:04;3.10;;;2.27;;
8399;SDS011;4237;47.030;15.396;2022-09-03T15:27:35;4.63;;;2.13;;
8399;SDS011;4237;47.030;15.396;2022-09-03T15:30:05;2.20;;;2.00;;
8399;SDS011;4237;47.030;15.396;2022-09-03T15:40:27;2.57;;;2.03;;
8399;SDS011;4237;47.030;15.396;2022-09-03T15:43:01;6.80;;;2.13;;
8399;SDS011;4237;47.030;15.396;2022-09-03T15:48:00;2.67;;;1.90;;
8399;SDS011;4237;47.030;15.396;2022-09-03T15:53:23;3.40;;;2.20;;
8399;SDS011;4237;47.030;15.396;2022-09-03T15:56:01;3.90;;;2.30;;
8399;SDS011;4237;47.030;15.396;2022-09-03T15:58:25;4.00;;;2.20;;
8399;SDS011;4237;47.030;15.396;2022-09-03T16:03:40;2.30;;;2.10;;
8399;SDS011;4237;47.030;15.396;2022-09-03T16:06:18;5.23;;;1.90;;
8399;SDS011;4237;47.030;15.396;2022-09-03T16:08:51;4.43;;;1.90;;
8399;SDS011;4237;47.030;15.396;2022-09-03T16:14:01;2.17;;;1.90;;
8399;SDS011;4237;47.030;15.396;2022-09-03T16:22:13;2.13;;;1.93;;
8399;SDS011;4237;47.030;15.396;2022-09-03T16:25:11;2.67;;;2.00;;
8399;SDS011;4237;47.030;15.396;2022-09-03T16:33:23;4.10;;;2.20;;
8399;SDS011;4237;47.030;15.396;2022-09-03T16:52:08;2.33;;;2.10;;
8399;SDS011;4237;47.030;15.396;2022-09-03T16:54:59;2.67;;;1.90;;
8399;SDS011;4237;47.030;15.396;2022-09-03T16:57:53;1.90;;;1.77;;
8399;SDS011;4237;47.030;15.396;2022-09-03T17:00:25;2.40;;;2.17;;
8399;SDS011;4237;47.030;15.396;2022-09-03T17:11:24;2.60;;;2.37;;
8399;SDS011;4237;47.030;15.396;2022-09-03T17:24:50;5.33;;;2.70;;
8399;SDS011;4237;47.030;15.396;2022-09-03T17:35:35;3.60;;;2.60;;
8399;SDS011;4237;47.030;15.396;2022-09-03T17:40:51;5.33;;;2.83;;
8399;SDS011;4237;47.030;15.396;2022-09-03T17:43:21;4.73;;;2.87;;
8399;SDS011;4237;47.030;15.396;2022-09-03T17:45:52;3.67;;;2.87;;
8399;SDS011;4237;47.030;15.396;2022-09-03T17:53:43;3.00;;;2.70;;
8399;SDS011;4237;47.030;15.396;2022-09-03T17:56:17;6.83;;;3.17;;
8399;SDS011;4237;47.030;15.396;2022-09-03T17:58:40;6.00;;;2.50;;
8399;SDS011;4237;47.030;15.396;2022-09-03T18:01:16;4.67;;;2.97;;
8399;SDS011;4237;47.030;15.396;2022-09-03T18:19:35;5.07;;;3.03;;
8399;SDS011;4237;47.030;15.396;2022-09-03T18:22:21;4.73;;;3.00;;
8399;SDS011;4237;47.030;15.396;2022-09-03T18:25:08;5.20;;;3.13;;
8399;SDS011;4237;47.030;15.396;2022-09-03T18:27:56;6.70;;;3.60;;
8399;SDS011;4237;47.030;15.396;2022-09-03T18:30:44;3.50;;;3.10;;
8399;SDS011;4237;47.030;15.396;2022-09-03T18:33:30;4.07;;;3.40;;
8399;SDS011;4237;47.030;15.396;2022-09-03T18:36:16;5.83;;;3.33;;
8399;SDS011;4237;47.030;15.396;2022-09-03T18:39:25;4.93;;;2.37;;
8399;SDS011;4237;47.030;15.396;2022-09-03T18:41:57;4.33;;;2.90;;
8399;SDS011;4237;47.030;15.396;2022-09-03T18:44:55;3.20;;;2.90;;
8399;SDS011;4237;47.030;15.396;2022-09-03T18:59:21;4.10;;;2.90;;
8399;SDS011;4237;47.030;15.396;2022-09-03T19:02:24;3.57;;;2.70;;
8399;SDS011;4237;47.030;15.396;2022-09-03T19:08:04;7.00;;;4.20;;
8399;SDS011;4237;47.030;15.396;2022-09-03T19:10:42;7.33;;;3.10;;
8399;SDS011;4237;47.030;15.396;2022-09-03T19:16:18;4.80;;;3.30;;
8399;SDS011;4237;47.030;15.396;2022-09-03T19:21:52;3.30;;;3.00;;
8399;SDS011;4237;47.030;15.396;2022-09-03T19:24:39;3.03;;;2.73;;
8399;SDS011;4237;47.030;15.396;2022-09-03T19:30:20;6.13;;;2.97;;
8399;SDS011;4237;47.030;15.396;2022-09-03T19:39:05;5.57;;;3.50;;
8399;SDS011;4237;47.030;15.396;2022-09-03T19:41:58;3.50;;;2.83;;
8399;SDS011;4237;47.030;15.396;2022-09-03T19:50:40;3.63;;;3.00;;
8399;SDS011;4237;47.030;15.396;2022-09-03T19:53:26;3.77;;;2.73;;
8399;SDS011;4237;47.030;15.396;2022-09-03T19:56:17;5.13;;;3.00;;
8399;SDS011;4237;47.030;15.396;2022-09-03T19:59:02;6.80;;;2.90;;
8399;SDS011;4237;47.030;15.396;2022-09-03T20:01:49;3.73;;;2.87;;
8399;SDS011;4237;47.030;15.396;2022-09-03T20:04:38;4.20;;;3.43;;
8399;SDS011;4237;47.030;15.396;2022-09-03T20:07:24;5.53;;;2.80;;
8399;SDS011;4237;47.030;15.396;2022-09-03T20:10:12;5.80;;;3.37;;
8399;SDS011;4237;47.030;15.396;2022-09-03T20:15:42;3.40;;;3.10;;
8399;SDS011;4237;47.030;15.396;2022-09-03T20:21:05;4.57;;;3.00;;
8399;SDS011;4237;47.030;15.396;2022-09-03T20:23:44;3.10;;;2.77;;
8399;SDS011;4237;47.030;15.396;2022-09-03T20:29:08;3.20;;;2.53;;
8399;SDS011;4237;47.030;15.396;2022-09-03T20:41:23;5.23;;;3.33;;